.
WxDataArchive / Data Records for 2013-06-29
2013-06-28 June 2013 2013-06-30

Data Records for Saturday, 29 June 2013

Time	Temp	Chill	HIndex	Humid	Dewpt	 Wind 	HiWind	WindDir	Rain 	Barom 
-----	----	-----	------	-----	-----	------	------	-------	-----	----- 
00:00	67.6	67.6	67.6	80	61.2	0	1	338	0.00	29.552 
00:05	67.8	67.8	67.8	80	61.4	0	1	338	0.00	29.552 
00:10	67.8	67.8	67.8	79	61.0	0	0	---	0.00	29.552 
00:15	67.8	67.8	67.8	79	61.0	0	0	---	0.00	29.546 
00:20	67.8	67.8	67.8	79	61.0	0	0	---	0.00	29.546 
00:25	67.8	67.8	67.8	80	61.4	0	0	---	0.00	29.546 
00:30	67.6	67.6	67.6	80	61.2	0	1	338	0.00	29.554 
00:35	67.3	67.3	67.3	81	61.3	0	1	338	0.00	29.554 
00:40	67.1	67.1	67.1	82	61.4	0	0	---	0.00	29.554 
00:45	66.8	66.8	66.8	82	61.1	0	0	---	0.00	29.550 
00:50	66.4	66.4	66.4	82	60.7	0	0	---	0.00	29.550 
00:55	66.4	66.4	66.4	83	61.1	0	0	---	0.00	29.550 
01:00	66.3	66.3	66.3	83	61.0	0	0	---	0.00	29.549 
01:05	66.1	66.1	66.1	84	61.1	0	0	---	0.00	29.549 
01:10	66.1	66.1	66.1	84	61.1	0	0	---	0.00	29.549 
01:15	66.0	66.0	66.0	84	61.0	0	0	---	0.00	29.552 
01:20	65.8	65.8	65.8	85	61.2	0	0	---	0.00	29.552 
01:25	65.8	65.8	65.8	85	61.2	0	0	---	0.00	29.552 
01:30	65.8	65.8	65.8	85	61.2	0	0	---	0.00	29.543 
01:35	65.6	65.6	65.6	86	61.3	0	0	---	0.00	29.543 
01:40	65.6	65.6	65.6	86	61.3	0	0	---	0.00	29.543 
01:45	65.6	65.6	65.6	86	61.3	0	1	338	0.00	29.539 
01:50	65.6	65.6	65.6	86	61.3	0	0	---	0.00	29.539 
01:55	65.6	65.6	65.6	86	61.3	0	0	---	0.00	29.539 
02:00	65.5	65.5	65.5	86	61.2	0	0	---	0.00	29.534 
02:05	65.5	65.5	65.5	86	61.2	0	1	338	0.00	29.534 
02:10	65.3	65.3	65.3	86	61.0	0	0	---	0.00	29.534 
02:15	65.3	65.3	65.3	87	61.3	0	0	---	0.00	29.537 
02:20	65.2	65.2	65.2	87	61.2	0	0	---	0.00	29.537 
02:25	65.0	65.0	65.0	87	61.0	0	0	---	0.00	29.537 
02:30	64.8	64.8	64.8	88	61.2	0	0	---	0.00	29.536 
02:35	64.7	64.7	64.7	88	61.1	0	0	---	0.00	29.536 
02:40	64.7	64.7	64.7	88	61.1	0	0	---	0.00	29.536 
02:45	64.5	64.5	64.5	88	60.9	0	0	---	0.00	29.534 
02:50	64.3	64.3	64.3	88	60.7	0	0	---	0.00	29.534 
02:55	64.3	64.3	64.3	89	61.0	0	0	---	0.00	29.534 
03:00	64.2	64.2	64.2	89	60.9	0	0	---	0.00	29.534 
03:05	64.2	64.2	64.2	89	60.9	0	0	---	0.00	29.534 
03:10	64.0	64.0	64.0	89	60.7	0	0	---	0.00	29.534 
03:15	63.9	63.9	63.9	90	60.9	0	0	---	0.00	29.542 
03:20	63.9	63.9	63.9	90	60.9	0	0	---	0.00	29.542 
03:25	63.7	63.7	63.7	90	60.7	0	0	---	0.00	29.542 
03:30	63.7	63.7	63.7	90	60.7	0	0	---	0.00	29.537 
03:35	63.5	63.5	63.5	91	60.8	0	0	---	0.00	29.537 
03:40	63.5	63.5	63.5	91	60.8	0	0	---	0.00	29.537 
03:45	63.5	63.5	63.5	91	60.8	0	0	---	0.00	29.536 
03:50	63.4	63.4	63.4	91	60.7	0	0	---	0.00	29.536 
03:55	63.4	63.4	63.4	91	60.7	0	0	---	0.00	29.536 
04:00	63.2	63.2	63.2	91	60.5	0	0	---	0.00	29.539 
04:05	63.1	63.1	63.1	92	60.7	0	0	---	0.00	29.539 
04:10	63.1	63.1	63.1	92	60.7	0	0	---	0.00	29.539 
04:15	62.9	62.9	62.9	92	60.5	0	0	---	0.00	29.532 
04:20	62.7	62.7	62.7	92	60.3	0	0	---	0.00	29.532 
04:25	62.6	62.6	62.6	92	60.2	0	0	---	0.00	29.532 
04:30	62.6	62.6	62.6	92	60.2	0	0	---	0.00	29.535 
04:35	62.6	62.6	62.6	92	60.2	0	0	---	0.00	29.535 
04:40	62.6	62.6	62.6	92	60.2	0	0	---	0.00	29.535 
04:45	62.6	62.6	62.6	92	60.2	0	0	---	0.00	29.541 
04:50	62.4	62.4	62.4	92	60.0	0	0	---	0.00	29.541 
04:55	62.6	62.6	62.6	93	60.5	0	0	---	0.00	29.541 
05:00	62.6	62.6	62.6	93	60.5	0	0	---	0.00	29.543 
05:05	62.7	62.7	62.7	93	60.6	0	0	---	0.00	29.543 
05:10	62.7	62.7	62.7	93	60.6	0	0	---	0.00	29.543 
05:15	62.6	62.6	62.6	93	60.5	0	0	---	0.00	29.543 
05:20	62.6	62.6	62.6	93	60.5	0	0	---	0.00	29.543 
05:25	62.6	62.6	62.6	93	60.5	0	0	---	0.00	29.543 
05:30	62.6	62.6	62.6	93	60.5	0	0	---	0.00	29.543 
05:35	62.6	62.6	62.6	93	60.5	0	0	---	0.00	29.543 
05:40	62.6	62.6	62.6	93	60.5	0	0	---	0.00	29.543 
05:45	62.6	62.6	62.6	93	60.5	0	0	---	0.00	29.543 
05:50	62.6	62.6	62.6	94	60.8	0	0	---	0.00	29.543 
05:55	62.4	62.4	62.4	93	60.3	0	0	---	0.00	29.543 
06:00	62.3	62.3	62.3	93	60.2	0	0	---	0.00	29.547 
06:05	62.1	62.1	62.1	93	60.0	0	0	---	0.00	29.547 
06:10	62.1	62.1	62.1	94	60.3	0	0	---	0.00	29.547 
06:15	62.1	62.1	62.1	94	60.3	0	0	---	0.00	29.546 
06:20	62.1	62.1	62.1	94	60.3	0	0	---	0.00	29.546 
06:25	62.1	62.1	62.1	94	60.3	0	0	---	0.00	29.546 
06:30	62.0	62.0	62.0	94	60.2	0	0	---	0.00	29.546 
06:35	62.0	62.0	62.0	94	60.2	0	0	---	0.00	29.546 
06:40	62.1	62.1	62.1	94	60.3	0	0	---	0.00	29.546 
06:45	62.3	62.3	62.3	94	60.5	0	0	---	0.00	29.544 
06:50	62.3	62.3	62.3	94	60.5	0	0	---	0.00	29.544 
06:55	62.3	62.3	62.3	94	60.5	0	0	---	0.00	29.544 
07:00	62.4	62.4	62.4	94	60.6	0	0	---	0.00	29.544 
07:05	62.6	62.6	62.6	94	60.8	0	0	---	0.00	29.544 
07:10	62.6	62.6	62.6	94	60.8	0	0	---	0.00	29.544 
07:15	62.9	62.9	62.9	95	61.4	0	1	338	0.00	29.547 
07:20	63.1	63.1	63.1	95	61.6	0	1	338	0.00	29.547 
07:25	63.2	63.2	63.2	95	61.7	0	1	338	0.00	29.547 
07:30	63.5	63.5	63.5	95	62.0	0	1	338	0.00	29.556 
07:35	63.7	63.7	63.7	95	62.2	0	1	338	0.00	29.556 
07:40	63.9	63.9	63.9	94	62.1	0	1	338	0.00	29.556 
07:45	64.3	64.3	64.3	94	62.5	0	1	338	0.00	29.558 
07:50	64.5	64.5	64.5	94	62.7	0	1	338	0.00	29.558 
07:55	65.0	65.0	65.0	94	63.2	0	0	---	0.00	29.558 
08:00	65.3	65.3	65.3	93	63.2	0	0	---	0.00	29.558 
08:05	65.6	65.6	65.6	93	63.5	0	1	338	0.00	29.558 
08:10	66.0	66.0	66.0	92	63.6	0	1	338	0.00	29.558 
08:15	66.3	66.3	66.3	91	63.6	0	1	338	0.00	29.560 
08:20	66.6	66.6	66.6	89	63.3	0	1	338	0.00	29.560 
08:25	67.1	67.1	67.1	88	63.4	0	1	338	0.00	29.560 
08:30	67.4	67.4	67.4	87	63.4	0	1	338	0.00	29.559 
08:35	67.8	67.8	67.8	85	63.1	0	2	338	0.00	29.559 
08:40	67.9	67.9	67.9	84	62.9	1	2	338	0.00	29.559 
08:45	68.4	68.4	68.4	82	62.7	0	1	338	0.00	29.559 
08:50	68.8	68.8	68.8	81	62.7	0	1	338	0.00	29.559 
08:55	69.1	69.1	69.1	79	62.3	0	2	338	0.00	29.559 
09:00	69.6	69.6	69.6	79	62.8	0	1	338	0.00	29.560 
09:05	70.4	70.4	70.4	77	62.8	0	1	338	0.00	29.560 
09:10	70.8	70.8	70.8	75	62.5	0	2	338	0.00	29.560 
09:15	71.3	71.3	71.3	76	63.3	0	1	338	0.00	29.566 
09:20	71.6	71.6	71.6	73	62.5	0	1	338	0.00	29.566 
09:25	71.6	71.6	71.6	72	62.1	1	2	338	0.00	29.566 
09:30	71.8	71.8	71.8	73	62.7	0	2	338	0.00	29.561 
09:35	72.0	72.0	72.0	72	62.5	0	2	338	0.00	29.561 
09:40	72.3	72.3	72.3	72	62.8	0	1	338	0.00	29.561 
09:45	72.8	72.8	72.8	72	63.2	0	2	0	0.00	29.563 
09:50	72.7	72.7	72.7	70	62.3	1	3	338	0.00	29.563 
09:55	72.3	72.3	72.3	71	62.4	0	1	338	0.00	29.563 
10:00	72.1	72.1	72.1	72	62.6	0	1	338	0.00	29.569 
10:05	72.1	72.1	72.1	72	62.6	0	1	338	0.00	29.569 
10:10	72.0	72.0	72.0	71	62.1	0	1	338	0.00	29.569 
10:15	71.8	71.8	71.8	70	61.5	0	1	338	0.00	29.568 
10:20	71.6	71.6	71.6	72	62.1	0	1	338	0.00	29.568 
10:25	72.0	72.0	72.0	72	62.5	0	1	338	0.00	29.568 
10:30	72.7	72.7	72.7	71	62.7	0	2	338	0.00	29.566 
10:35	73.9	73.9	73.9	70	63.5	1	3	338	0.00	29.566 
10:40	74.2	74.2	74.2	67	62.5	0	1	22	0.00	29.566 
10:45	74.4	74.4	74.4	67	62.7	0	1	22	0.00	29.564 
10:50	74.4	74.4	74.4	67	62.7	0	1	22	0.00	29.564 
10:55	74.4	74.4	74.4	66	62.3	0	1	22	0.00	29.564 
11:00	73.9	73.9	73.9	66	61.8	0	2	22	0.00	29.565 
11:05	73.2	73.2	73.2	67	61.6	1	2	22	0.00	29.565 
11:10	72.8	72.8	72.8	68	61.6	1	3	338	0.00	29.565 
11:15	72.5	72.5	72.5	68	61.3	1	2	338	0.00	29.566 
11:20	72.7	72.7	72.7	69	61.9	0	2	338	0.00	29.566 
11:25	73.2	73.2	73.2	69	62.4	1	4	338	0.00	29.566 
11:30	74.0	74.0	74.0	69	63.2	1	4	270	0.00	29.561 
11:35	74.6	74.6	74.6	65	62.0	0	2	270	0.00	29.561 
11:40	75.6	75.6	77.5	65	63.0	1	3	22	0.00	29.561 
11:45	75.8	75.8	77.8	63	62.3	1	3	22	0.00	29.560 
11:50	75.1	75.1	77.1	65	62.5	0	1	22	0.00	29.560 
11:55	74.6	74.6	74.6	64	61.6	0	2	0	0.00	29.560 
12:00	74.2	74.2	74.2	64	61.2	1	2	0	0.00	29.566 
12:05	73.9	73.9	73.9	64	60.9	1	2	0	0.00	29.566 
12:10	73.9	73.9	73.9	66	61.8	1	2	0	0.00	29.566 
12:15	73.7	73.7	73.7	64	60.7	0	2	0	0.00	29.566 
12:20	73.9	73.9	73.9	64	60.9	0	2	0	0.00	29.566 
12:25	73.9	73.9	73.9	64	60.9	0	1	0	0.00	29.566 
12:30	73.9	73.9	73.9	62	60.0	0	2	0	0.00	29.564 
12:35	74.0	74.0	74.0	63	60.6	0	1	0	0.00	29.564 
12:40	74.4	74.4	74.4	63	61.0	0	1	0	0.00	29.564 
12:45	74.6	74.6	74.6	63	61.2	0	2	0	0.00	29.562 
12:50	74.6	74.6	74.6	61	60.2	0	2	0	0.00	29.562 
12:55	74.7	74.7	74.7	64	61.7	0	1	0	0.00	29.562 
13:00	74.6	74.6	74.6	65	62.0	0	1	0	0.00	29.564 
13:05	74.6	74.6	74.6	64	61.6	1	3	22	0.00	29.564 
13:10	74.4	74.4	74.4	65	61.8	0	3	45	0.00	29.564 
13:15	74.0	74.0	74.0	66	61.9	0	3	0	0.00	29.563 
13:20	73.9	73.9	73.9	65	61.4	0	1	0	0.00	29.563 
13:25	73.9	73.9	73.9	65	61.4	0	1	0	0.00	29.563 
13:30	73.9	73.9	73.9	65	61.4	1	3	0	0.00	29.562 
13:35	73.9	73.9	73.9	66	61.8	0	4	22	0.00	29.562 
13:40	73.9	73.9	73.9	67	62.2	0	1	22	0.00	29.562 
13:45	73.9	73.9	73.9	67	62.2	0	1	22	0.00	29.561 
13:50	73.7	73.7	73.7	68	62.5	0	1	22	0.00	29.561 
13:55	73.5	73.5	73.5	71	63.5	1	5	90	0.00	29.561 
14:00	73.2	73.2	73.2	71	63.2	1	2	90	0.00	29.563 
14:05	72.8	72.8	72.8	71	62.8	0	1	90	0.00	29.563 
14:10	72.5	72.5	72.5	71	62.5	0	2	90	0.00	29.563 
14:15	72.5	72.5	72.5	73	63.3	0	1	90	0.00	29.570 
14:20	72.3	72.3	72.3	73	63.1	0	1	90	0.00	29.570 
14:25	72.1	72.1	72.1	75	63.7	0	2	90	0.00	29.570 
14:30	72.0	72.0	72.0	78	64.8	0	1	90	0.01	29.566 
14:35	71.6	71.6	71.6	78	64.4	1	3	90	0.00	29.566 
14:40	70.9	70.9	70.9	79	64.1	0	2	90	0.00	29.566 
14:45	70.6	70.6	70.6	81	64.5	0	1	90	0.00	29.573 
14:50	70.4	70.4	70.4	81	64.3	1	3	90	0.00	29.573 
14:55	70.3	70.3	70.3	82	64.5	1	3	90	0.00	29.573 
15:00	70.3	70.3	70.3	85	65.6	2	7	112	0.00	29.578 
15:05	70.3	70.3	70.3	85	65.6	2	5	112	0.00	29.578 
15:10	70.3	70.3	70.3	84	65.2	1	4	90	0.00	29.578 
15:15	70.4	70.4	70.4	82	64.6	2	5	90	0.00	29.581 
15:20	70.8	70.8	70.8	78	63.6	1	4	90	0.00	29.581 
15:25	71.1	71.1	71.1	74	62.4	1	2	90	0.00	29.581 
15:30	71.5	71.5	71.5	77	63.9	0	2	90	0.00	29.595 
15:35	71.1	71.1	71.1	77	63.5	1	4	90	0.00	29.595 
15:40	70.9	70.9	70.9	78	63.7	0	2	90	0.00	29.595 
15:45	70.8	70.8	70.8	80	64.3	0	1	90	0.00	29.597 
15:50	70.6	70.6	70.6	80	64.1	0	0	---	0.00	29.597 
15:55	70.4	70.4	70.4	80	63.9	0	1	90	0.00	29.597 
16:00	70.4	70.4	70.4	80	63.9	0	1	90	0.00	29.598 
16:05	70.4	70.4	70.4	80	63.9	0	1	90	0.00	29.598 
16:10	70.4	70.4	70.4	78	63.2	0	2	90	0.00	29.598 
16:15	70.8	70.8	70.8	79	64.0	0	3	90	0.00	29.588 
16:20	70.9	70.9	70.9	79	64.1	0	0	---	0.00	29.588 
16:25	71.1	71.1	71.1	78	63.9	0	0	---	0.00	29.588 
16:30	71.1	71.1	71.1	78	63.9	0	0	---	0.00	29.580 
16:35	71.1	71.1	71.1	76	63.1	1	2	90	0.00	29.580 
16:40	71.1	71.1	71.1	76	63.1	0	1	90	0.00	29.580 
16:45	71.3	71.3	71.3	75	63.0	0	0	---	0.00	29.590 
16:50	71.6	71.6	71.6	75	63.2	0	1	90	0.00	29.590 
16:55	72.0	72.0	72.0	74	63.2	0	1	90	0.00	29.590 
17:00	72.3	72.3	72.3	73	63.1	0	2	90	0.00	29.599 
17:05	72.5	72.5	72.5	72	62.9	0	1	90	0.00	29.599 
17:10	72.5	72.5	72.5	73	63.3	0	1	90	0.00	29.599 
17:15	72.3	72.3	72.3	73	63.1	0	1	90	0.00	29.601 
17:20	72.5	72.5	72.5	74	63.7	0	0	---	0.00	29.601 
17:25	72.7	72.7	72.7	71	62.7	0	1	90	0.00	29.601 
17:30	73.0	73.0	73.0	72	63.4	0	1	90	0.00	29.600 
17:35	73.2	73.2	73.2	70	62.8	0	1	90	0.00	29.600 
17:40	73.2	73.2	73.2	70	62.8	0	1	90	0.00	29.600 
17:45	73.3	73.3	73.3	70	62.9	0	1	90	0.00	29.597 
17:50	73.7	73.7	73.7	68	62.5	0	0	---	0.00	29.597 
17:55	73.9	73.9	73.9	68	62.7	0	1	90	0.00	29.597 
18:00	73.9	73.9	73.9	66	61.8	0	0	---	0.00	29.608 
18:05	74.0	74.0	74.0	68	62.8	0	1	90	0.00	29.608 
18:10	73.7	73.7	73.7	66	61.6	0	2	90	0.00	29.608 
18:15	73.5	73.5	73.5	68	62.3	0	4	90	0.00	29.603 
18:20	73.7	73.7	73.7	69	62.9	0	2	90	0.00	29.603 
18:25	73.7	73.7	73.7	70	63.3	1	4	90	0.00	29.603 
18:30	73.7	73.7	73.7	70	63.3	0	2	90	0.00	29.599 
18:35	73.2	73.2	73.2	72	63.6	3	9	90	0.00	29.599 
18:40	72.3	72.3	72.3	75	63.9	2	6	90	0.00	29.599 
18:45	71.8	71.8	71.8	76	63.8	1	2	90	0.00	29.602 
18:50	71.3	71.3	71.3	76	63.3	0	2	90	0.00	29.602 
18:55	70.8	70.8	70.8	74	62.1	1	3	90	0.00	29.602 
19:00	70.3	70.3	70.3	76	62.4	0	3	22	0.00	29.612 
19:05	69.9	69.9	69.9	76	62.0	0	3	112	0.00	29.612 
19:10	69.8	69.8	69.8	77	62.3	1	4	135	0.00	29.612 
19:15	69.4	69.4	69.4	78	62.2	1	4	90	0.00	29.612 
19:20	69.3	69.3	69.3	80	62.9	1	3	68	0.00	29.612 
19:25	69.1	69.1	69.1	81	63.0	0	2	68	0.00	29.612 
19:30	69.1	69.1	69.1	81	63.0	0	2	68	0.00	29.615 
19:35	69.1	69.1	69.1	82	63.4	0	3	68	0.00	29.615 
19:40	69.1	69.1	69.1	82	63.4	0	1	68	0.00	29.615 
19:45	68.9	68.9	68.9	84	63.9	0	2	68	0.01	29.622 
19:50	68.6	68.6	68.6	84	63.6	0	2	68	0.00	29.622 
19:55	68.3	68.3	68.3	86	63.9	0	2	68	0.00	29.622 
20:00	68.1	68.1	68.1	86	63.7	0	1	68	0.00	29.629 
20:05	67.6	67.6	67.6	86	63.3	0	1	68	0.00	29.629 
20:10	67.6	67.6	67.6	87	63.6	0	1	68	0.00	29.629 
20:15	67.6	67.6	67.6	87	63.6	0	0	---	0.00	29.628 
20:20	67.6	67.6	67.6	88	63.9	0	1	68	0.00	29.628 
20:25	67.4	67.4	67.4	88	63.7	0	2	68	0.00	29.628 
20:30	67.4	67.4	67.4	88	63.7	0	2	68	0.00	29.642 
20:35	67.4	67.4	67.4	88	63.7	0	1	68	0.00	29.642 
20:40	67.4	67.4	67.4	88	63.7	0	0	---	0.00	29.642 
20:45	67.4	67.4	67.4	88	63.7	0	2	68	0.00	29.649 
20:50	67.3	67.3	67.3	88	63.6	0	2	68	0.00	29.649 
20:55	67.3	67.3	67.3	89	63.9	0	3	68	0.00	29.649 
21:00	67.3	67.3	67.3	89	63.9	0	2	68	0.00	29.654 
21:05	67.1	67.1	67.1	89	63.7	1	4	90	0.00	29.654 
21:10	66.8	66.8	66.8	89	63.4	1	3	90	0.00	29.654 
21:15	66.8	66.8	66.8	89	63.4	0	2	90	0.00	29.656 
21:20	66.6	66.6	66.6	88	62.9	0	2	90	0.00	29.656 
21:25	66.4	66.4	66.4	88	62.7	0	2	90	0.00	29.656 
21:30	66.3	66.3	66.3	88	62.6	0	1	90	0.00	29.659 
21:35	66.3	66.3	66.3	88	62.6	0	1	90	0.00	29.659 
21:40	66.1	66.1	66.1	88	62.4	0	1	90	0.00	29.659 
21:45	66.1	66.1	66.1	88	62.4	0	1	90	0.00	29.657 
21:50	66.1	66.1	66.1	88	62.4	0	2	90	0.00	29.657 
21:55	66.0	66.0	66.0	88	62.3	0	0	---	0.00	29.657 
22:00	66.0	66.0	66.0	88	62.3	0	4	90	0.00	29.659 
22:05	65.8	65.8	65.8	88	62.1	0	0	---	0.00	29.659 
22:10	65.6	65.6	65.6	88	61.9	0	1	90	0.00	29.659 
22:15	65.6	65.6	65.6	88	61.9	0	1	90	0.00	29.663 
22:20	65.5	65.5	65.5	88	61.8	0	2	90	0.00	29.663 
22:25	65.5	65.5	65.5	88	61.8	0	2	90	0.00	29.663 
22:30	65.3	65.3	65.3	88	61.6	0	1	90	0.00	29.670 
22:35	65.3	65.3	65.3	88	61.6	0	2	90	0.00	29.670 
22:40	65.3	65.3	65.3	89	62.0	0	2	90	0.00	29.670 
22:45	65.3	65.3	65.3	89	62.0	0	1	90	0.00	29.673 
22:50	65.3	65.3	65.3	89	62.0	0	3	90	0.00	29.673 
22:55	65.3	65.3	65.3	89	62.0	0	3	90	0.00	29.673 
23:00	65.3	65.3	65.3	89	62.0	0	2	90	0.00	29.672 
23:05	65.3	65.3	65.3	90	62.3	0	1	90	0.00	29.672 
23:10	65.2	65.2	65.2	90	62.2	0	1	90	0.00	29.672 
23:15	65.2	65.2	65.2	90	62.2	0	1	90	0.00	29.674 
23:20	65.2	65.2	65.2	90	62.2	0	1	90	0.00	29.674 
23:25	65.3	65.3	65.3	90	62.3	0	2	90	0.00	29.674 
23:30	65.5	65.5	65.5	90	62.5	0	0	---	0.00	29.673 
23:35	65.5	65.5	65.5	90	62.5	0	1	90	0.00	29.673 
23:40	65.6	65.6	65.6	90	62.6	0	4	90	0.00	29.673 
23:45	65.8	65.8	65.8	91	63.1	1	3	135	0.00	29.672 
23:50	65.8	65.8	65.8	90	62.8	1	3	135	0.00	29.672 
23:55	66.0	66.0	66.0	90	63.0	1	3	135	0.00	29.672 

CoCoRaHS
IN-AL-39
A2 Web Hosting
Creative Commons License
GoDaddy
search engine by freefind advanced

loaded 2018-11-15 03:03:03 • last modified 2010-11-18 10:43:29
Privacy PolicyDisclaimer
• wx.awcolley.com is powered by PmWiki v.2002016 •
• all content (unless otherwise noted) © 2018 A W Colley